sensor_id;sensor_type;location;lat;lon;timestamp;P1;durP1;ratioP1;P2;durP2;ratioP2
25237;SDS011;13185;50.872;5.306;2024-01-30T00:01:13;4.82;;;3.70;;
25237;SDS011;13185;50.872;5.306;2024-01-30T00:03:38;4.88;;;4.40;;
25237;SDS011;13185;50.872;5.306;2024-01-30T00:06:04;5.75;;;4.50;;
25237;SDS011;13185;50.872;5.306;2024-01-30T00:08:30;6.35;;;4.57;;
25237;SDS011;13185;50.872;5.306;2024-01-30T00:10:55;5.85;;;4.25;;
25237;SDS011;13185;50.872;5.306;2024-01-30T00:13:21;7.68;;;5.20;;
25237;SDS011;13185;50.872;5.306;2024-01-30T00:15:46;6.57;;;4.55;;
25237;SDS011;13185;50.872;5.306;2024-01-30T00:18:12;6.70;;;4.43;;
25237;SDS011;13185;50.872;5.306;2024-01-30T00:20:37;7.30;;;5.15;;
25237;SDS011;13185;50.872;5.306;2024-01-30T00:23:03;6.70;;;5.00;;
25237;SDS011;13185;50.872;5.306;2024-01-30T00:25:29;6.35;;;4.20;;
25237;SDS011;13185;50.872;5.306;2024-01-30T00:27:55;6.47;;;4.60;;
25237;SDS011;13185;50.872;5.306;2024-01-30T00:30:21;9.55;;;4.95;;
25237;SDS011;13185;50.872;5.306;2024-01-30T00:32:47;5.63;;;4.70;;
25237;SDS011;13185;50.872;5.306;2024-01-30T00:35:12;6.68;;;4.68;;
25237;SDS011;13185;50.872;5.306;2024-01-30T00:37:38;7.22;;;4.18;;
25237;SDS011;13185;50.872;5.306;2024-01-30T00:40:04;6.20;;;4.85;;
25237;SDS011;13185;50.872;5.306;2024-01-30T00:42:31;7.93;;;4.82;;
25237;SDS011;13185;50.872;5.306;2024-01-30T00:44:57;7.10;;;4.93;;
25237;SDS011;13185;50.872;5.306;2024-01-30T00:47:23;8.00;;;4.22;;
25237;SDS011;13185;50.872;5.306;2024-01-30T00:49:48;7.97;;;4.68;;
25237;SDS011;13185;50.872;5.306;2024-01-30T00:52:14;5.97;;;4.10;;
25237;SDS011;13185;50.872;5.306;2024-01-30T00:54:41;6.35;;;3.80;;
25237;SDS011;13185;50.872;5.306;2024-01-30T00:57:07;6.93;;;4.45;;
25237;SDS011;13185;50.872;5.306;2024-01-30T00:59:32;6.47;;;4.30;;
25237;SDS011;13185;50.872;5.306;2024-01-30T01:01:58;6.55;;;4.30;;
25237;SDS011;13185;50.872;5.306;2024-01-30T01:04:24;6.35;;;4.32;;
25237;SDS011;13185;50.872;5.306;2024-01-30T01:06:51;7.75;;;4.25;;
25237;SDS011;13185;50.872;5.306;2024-01-30T01:09:17;6.28;;;4.22;;
25237;SDS011;13185;50.872;5.306;2024-01-30T01:11:43;7.85;;;3.63;;
25237;SDS011;13185;50.872;5.306;2024-01-30T01:14:08;5.93;;;4.13;;
25237;SDS011;13185;50.872;5.306;2024-01-30T01:16:34;6.63;;;4.20;;
25237;SDS011;13185;50.872;5.306;2024-01-30T01:19:00;4.65;;;3.90;;
25237;SDS011;13185;50.872;5.306;2024-01-30T01:21:26;7.07;;;3.85;;
25237;SDS011;13185;50.872;5.306;2024-01-30T01:23:51;5.45;;;3.97;;
25237;SDS011;13185;50.872;5.306;2024-01-30T01:26:17;5.53;;;3.88;;
25237;SDS011;13185;50.872;5.306;2024-01-30T01:28:42;6.13;;;4.00;;
25237;SDS011;13185;50.872;5.306;2024-01-30T01:31:08;7.70;;;4.03;;
25237;SDS011;13185;50.872;5.306;2024-01-30T01:33:34;5.38;;;3.70;;
25237;SDS011;13185;50.872;5.306;2024-01-30T01:36:00;4.93;;;3.78;;
25237;SDS011;13185;50.872;5.306;2024-01-30T01:38:29;8.85;;;4.30;;
25237;SDS011;13185;50.872;5.306;2024-01-30T01:40:55;5.63;;;4.28;;
25237;SDS011;13185;50.872;5.306;2024-01-30T01:43:21;5.18;;;3.70;;
25237;SDS011;13185;50.872;5.306;2024-01-30T01:45:46;6.20;;;3.88;;
25237;SDS011;13185;50.872;5.306;2024-01-30T01:48:12;6.07;;;3.65;;
25237;SDS011;13185;50.872;5.306;2024-01-30T01:50:38;7.47;;;4.15;;
25237;SDS011;13185;50.872;5.306;2024-01-30T01:53:05;5.03;;;4.03;;
25237;SDS011;13185;50.872;5.306;2024-01-30T01:55:33;6.63;;;3.60;;
25237;SDS011;13185;50.872;5.306;2024-01-30T01:58:00;4.72;;;3.45;;
25237;SDS011;13185;50.872;5.306;2024-01-30T02:00:27;6.20;;;3.85;;
25237;SDS011;13185;50.872;5.306;2024-01-30T02:02:54;6.63;;;3.70;;
25237;SDS011;13185;50.872;5.306;2024-01-30T02:05:20;6.05;;;3.88;;
25237;SDS011;13185;50.872;5.306;2024-01-30T02:07:46;6.13;;;4.18;;
25237;SDS011;13185;50.872;5.306;2024-01-30T02:10:12;10.20;;;4.07;;
25237;SDS011;13185;50.872;5.306;2024-01-30T02:12:38;8.20;;;3.88;;
25237;SDS011;13185;50.872;5.306;2024-01-30T02:15:05;6.85;;;4.07;;
25237;SDS011;13185;50.872;5.306;2024-01-30T02:17:31;7.50;;;3.80;;
25237;SDS011;13185;50.872;5.306;2024-01-30T02:19:56;5.75;;;3.85;;
25237;SDS011;13185;50.872;5.306;2024-01-30T02:22:22;6.38;;;3.83;;
25237;SDS011;13185;50.872;5.306;2024-01-30T02:24:49;6.55;;;3.55;;
25237;SDS011;13185;50.872;5.306;2024-01-30T02:27:15;5.75;;;3.70;;
25237;SDS011;13185;50.872;5.306;2024-01-30T02:29:40;7.15;;;4.10;;
25237;SDS011;13185;50.872;5.306;2024-01-30T02:32:06;4.38;;;3.47;;
25237;SDS011;13185;50.872;5.306;2024-01-30T02:34:32;6.47;;;3.60;;
25237;SDS011;13185;50.872;5.306;2024-01-30T02:36:58;6.40;;;3.97;;
25237;SDS011;13185;50.872;5.306;2024-01-30T02:39:24;6.15;;;3.38;;
25237;SDS011;13185;50.872;5.306;2024-01-30T02:41:49;6.30;;;3.20;;
25237;SDS011;13185;50.872;5.306;2024-01-30T02:44:15;6.03;;;3.75;;
25237;SDS011;13185;50.872;5.306;2024-01-30T02:46:40;3.83;;;3.33;;
25237;SDS011;13185;50.872;5.306;2024-01-30T02:49:06;5.05;;;3.42;;
25237;SDS011;13185;50.872;5.306;2024-01-30T02:51:31;7.15;;;3.78;;
25237;SDS011;13185;50.872;5.306;2024-01-30T02:53:57;5.78;;;3.85;;
25237;SDS011;13185;50.872;5.306;2024-01-30T02:56:22;4.68;;;3.58;;
25237;SDS011;13185;50.872;5.306;2024-01-30T02:58:48;4.60;;;3.10;;
25237;SDS011;13185;50.872;5.306;2024-01-30T03:01:13;6.68;;;3.58;;
25237;SDS011;13185;50.872;5.306;2024-01-30T03:03:39;6.28;;;3.40;;
25237;SDS011;13185;50.872;5.306;2024-01-30T03:06:05;5.03;;;3.35;;
25237;SDS011;13185;50.872;5.306;2024-01-30T03:08:31;3.83;;;3.20;;
25237;SDS011;13185;50.872;5.306;2024-01-30T03:10:57;8.00;;;3.30;;
25237;SDS011;13185;50.872;5.306;2024-01-30T03:13:22;4.90;;;3.30;;
25237;SDS011;13185;50.872;5.306;2024-01-30T03:15:50;4.43;;;3.15;;
25237;SDS011;13185;50.872;5.306;2024-01-30T03:18:15;7.50;;;3.47;;
25237;SDS011;13185;50.872;5.306;2024-01-30T03:20:41;6.43;;;3.13;;
25237;SDS011;13185;50.872;5.306;2024-01-30T03:23:06;4.53;;;3.00;;
25237;SDS011;13185;50.872;5.306;2024-01-30T03:25:32;4.93;;;3.40;;
25237;SDS011;13185;50.872;5.306;2024-01-30T03:27:57;4.30;;;3.40;;
25237;SDS011;13185;50.872;5.306;2024-01-30T03:30:23;4.60;;;2.88;;
25237;SDS011;13185;50.872;5.306;2024-01-30T03:32:48;6.43;;;3.40;;
25237;SDS011;13185;50.872;5.306;2024-01-30T03:35:14;6.88;;;3.30;;
25237;SDS011;13185;50.872;5.306;2024-01-30T03:37:40;3.45;;;3.13;;
25237;SDS011;13185;50.872;5.306;2024-01-30T03:40:05;6.18;;;3.42;;
25237;SDS011;13185;50.872;5.306;2024-01-30T03:42:31;4.85;;;3.30;;
25237;SDS011;13185;50.872;5.306;2024-01-30T03:44:57;5.53;;;3.10;;
25237;SDS011;13185;50.872;5.306;2024-01-30T03:47:22;4.05;;;3.08;;
25237;SDS011;13185;50.872;5.306;2024-01-30T03:49:48;4.78;;;3.17;;
25237;SDS011;13185;50.872;5.306;2024-01-30T03:52:13;5.53;;;2.90;;
25237;SDS011;13185;50.872;5.306;2024-01-30T03:54:39;5.10;;;3.67;;
25237;SDS011;13185;50.872;5.306;2024-01-30T03:57:04;3.88;;;2.78;;
25237;SDS011;13185;50.872;5.306;2024-01-30T03:59:30;7.10;;;3.45;;
25237;SDS011;13185;50.872;5.306;2024-01-30T04:01:56;5.15;;;3.13;;
25237;SDS011;13185;50.872;5.306;2024-01-30T04:04:21;4.00;;;2.95;;
25237;SDS011;13185;50.872;5.306;2024-01-30T04:06:47;6.60;;;2.72;;
25237;SDS011;13185;50.872;5.306;2024-01-30T04:09:13;4.72;;;3.33;;
25237;SDS011;13185;50.872;5.306;2024-01-30T04:11:39;4.95;;;3.25;;
25237;SDS011;13185;50.872;5.306;2024-01-30T04:14:05;7.25;;;3.20;;
25237;SDS011;13185;50.872;5.306;2024-01-30T04:16:30;5.35;;;2.80;;
25237;SDS011;13185;50.872;5.306;2024-01-30T04:18:56;5.78;;;3.10;;
25237;SDS011;13185;50.872;5.306;2024-01-30T04:21:22;6.38;;;3.13;;
25237;SDS011;13185;50.872;5.306;2024-01-30T04:23:47;6.50;;;2.78;;
25237;SDS011;13185;50.872;5.306;2024-01-30T04:26:13;5.25;;;2.85;;
25237;SDS011;13185;50.872;5.306;2024-01-30T04:28:45;3.75;;;3.22;;
25237;SDS011;13185;50.872;5.306;2024-01-30T04:31:11;7.63;;;2.70;;
25237;SDS011;13185;50.872;5.306;2024-01-30T04:33:37;5.25;;;3.10;;
25237;SDS011;13185;50.872;5.306;2024-01-30T04:36:03;5.47;;;3.25;;
25237;SDS011;13185;50.872;5.306;2024-01-30T04:38:30;5.90;;;3.10;;
25237;SDS011;13185;50.872;5.306;2024-01-30T04:40:55;6.57;;;3.90;;
25237;SDS011;13185;50.872;5.306;2024-01-30T04:43:21;5.95;;;3.47;;
25237;SDS011;13185;50.872;5.306;2024-01-30T04:45:46;4.90;;;3.15;;
25237;SDS011;13185;50.872;5.306;2024-01-30T04:48:12;4.22;;;2.80;;
25237;SDS011;13185;50.872;5.306;2024-01-30T04:50:38;7.07;;;3.30;;
25237;SDS011;13185;50.872;5.306;2024-01-30T04:53:04;4.15;;;2.95;;
25237;SDS011;13185;50.872;5.306;2024-01-30T04:55:29;4.53;;;2.60;;
25237;SDS011;13185;50.872;5.306;2024-01-30T04:57:55;5.63;;;3.13;;
25237;SDS011;13185;50.872;5.306;2024-01-30T05:00:20;4.05;;;3.10;;
25237;SDS011;13185;50.872;5.306;2024-01-30T05:02:46;7.35;;;3.28;;
25237;SDS011;13185;50.872;5.306;2024-01-30T05:05:11;4.78;;;3.17;;
25237;SDS011;13185;50.872;5.306;2024-01-30T05:07:38;6.35;;;3.28;;
25237;SDS011;13185;50.872;5.306;2024-01-30T05:10:06;5.93;;;3.20;;
25237;SDS011;13185;50.872;5.306;2024-01-30T05:12:31;3.90;;;2.95;;
25237;SDS011;13185;50.872;5.306;2024-01-30T05:14:57;5.20;;;3.10;;
25237;SDS011;13185;50.872;5.306;2024-01-30T05:17:22;4.75;;;3.45;;
25237;SDS011;13185;50.872;5.306;2024-01-30T05:19:48;5.53;;;3.00;;
25237;SDS011;13185;50.872;5.306;2024-01-30T05:22:13;5.03;;;3.10;;
25237;SDS011;13185;50.872;5.306;2024-01-30T05:24:41;4.63;;;3.20;;
25237;SDS011;13185;50.872;5.306;2024-01-30T05:27:10;5.65;;;3.13;;
25237;SDS011;13185;50.872;5.306;2024-01-30T05:29:36;3.85;;;3.15;;
25237;SDS011;13185;50.872;5.306;2024-01-30T05:32:02;3.75;;;2.78;;
25237;SDS011;13185;50.872;5.306;2024-01-30T05:34:28;4.47;;;3.35;;
25237;SDS011;13185;50.872;5.306;2024-01-30T05:36:54;4.78;;;3.22;;
25237;SDS011;13185;50.872;5.306;2024-01-30T05:39:19;5.80;;;2.78;;
25237;SDS011;13185;50.872;5.306;2024-01-30T05:41:45;6.93;;;3.58;;
25237;SDS011;13185;50.872;5.306;2024-01-30T05:44:10;7.40;;;3.22;;
25237;SDS011;13185;50.872;5.306;2024-01-30T05:46:36;5.60;;;3.08;;
25237;SDS011;13185;50.872;5.306;2024-01-30T05:49:01;3.97;;;3.20;;
25237;SDS011;13185;50.872;5.306;2024-01-30T05:51:27;4.15;;;3.05;;
25237;SDS011;13185;50.872;5.306;2024-01-30T05:53:53;4.43;;;3.20;;
25237;SDS011;13185;50.872;5.306;2024-01-30T05:56:19;5.13;;;3.30;;
25237;SDS011;13185;50.872;5.306;2024-01-30T05:58:45;6.10;;;3.10;;
25237;SDS011;13185;50.872;5.306;2024-01-30T06:01:10;5.97;;;3.80;;
25237;SDS011;13185;50.872;5.306;2024-01-30T06:03:35;5.15;;;3.47;;
25237;SDS011;13185;50.872;5.306;2024-01-30T06:06:01;5.82;;;3.13;;
25237;SDS011;13185;50.872;5.306;2024-01-30T06:08:27;7.10;;;3.90;;
25237;SDS011;13185;50.872;5.306;2024-01-30T06:10:52;3.92;;;2.83;;
25237;SDS011;13185;50.872;5.306;2024-01-30T06:13:18;4.85;;;3.15;;
25237;SDS011;13185;50.872;5.306;2024-01-30T06:15:43;6.22;;;3.40;;
25237;SDS011;13185;50.872;5.306;2024-01-30T06:18:09;6.03;;;3.55;;
25237;SDS011;13185;50.872;5.306;2024-01-30T06:20:35;3.90;;;3.30;;
25237;SDS011;13185;50.872;5.306;2024-01-30T06:23:00;5.78;;;3.78;;
25237;SDS011;13185;50.872;5.306;2024-01-30T06:25:26;6.20;;;3.53;;
25237;SDS011;13185;50.872;5.306;2024-01-30T06:27:51;5.95;;;3.72;;
25237;SDS011;13185;50.872;5.306;2024-01-30T06:30:17;7.45;;;4.10;;
25237;SDS011;13185;50.872;5.306;2024-01-30T06:32:43;5.20;;;3.40;;
25237;SDS011;13185;50.872;5.306;2024-01-30T06:35:08;5.60;;;3.25;;
25237;SDS011;13185;50.872;5.306;2024-01-30T06:37:35;5.78;;;3.40;;
25237;SDS011;13185;50.872;5.306;2024-01-30T06:40:01;5.25;;;3.80;;
25237;SDS011;13185;50.872;5.306;2024-01-30T06:42:26;6.13;;;3.53;;
25237;SDS011;13185;50.872;5.306;2024-01-30T06:44:52;4.15;;;3.30;;
25237;SDS011;13185;50.872;5.306;2024-01-30T06:47:17;4.35;;;3.13;;
25237;SDS011;13185;50.872;5.306;2024-01-30T06:49:43;5.40;;;3.55;;
25237;SDS011;13185;50.872;5.306;2024-01-30T06:52:10;5.28;;;3.67;;
25237;SDS011;13185;50.872;5.306;2024-01-30T06:54:36;5.60;;;3.38;;
25237;SDS011;13185;50.872;5.306;2024-01-30T06:57:01;5.78;;;3.53;;
25237;SDS011;13185;50.872;5.306;2024-01-30T06:59:27;5.03;;;2.83;;
25237;SDS011;13185;50.872;5.306;2024-01-30T07:01:53;5.15;;;3.47;;
25237;SDS011;13185;50.872;5.306;2024-01-30T07:04:18;5.15;;;3.53;;
25237;SDS011;13185;50.872;5.306;2024-01-30T07:06:45;5.15;;;3.75;;
25237;SDS011;13185;50.872;5.306;2024-01-30T07:09:12;4.75;;;3.15;;
25237;SDS011;13185;50.872;5.306;2024-01-30T07:11:38;5.18;;;3.58;;
25237;SDS011;13185;50.872;5.306;2024-01-30T07:14:04;6.40;;;3.80;;
25237;SDS011;13185;50.872;5.306;2024-01-30T07:16:29;8.85;;;3.63;;
25237;SDS011;13185;50.872;5.306;2024-01-30T07:18:55;4.88;;;3.90;;
25237;SDS011;13185;50.872;5.306;2024-01-30T07:21:21;7.05;;;3.65;;
25237;SDS011;13185;50.872;5.306;2024-01-30T07:23:53;5.60;;;3.42;;
25237;SDS011;13185;50.872;5.306;2024-01-30T07:26:19;4.97;;;3.58;;
25237;SDS011;13185;50.872;5.306;2024-01-30T07:28:44;6.53;;;3.90;;
25237;SDS011;13185;50.872;5.306;2024-01-30T07:31:10;6.57;;;3.42;;
25237;SDS011;13185;50.872;5.306;2024-01-30T07:33:35;4.93;;;3.28;;
25237;SDS011;13185;50.872;5.306;2024-01-30T07:36:01;4.82;;;3.28;;
25237;SDS011;13185;50.872;5.306;2024-01-30T07:38:26;5.88;;;3.33;;
25237;SDS011;13185;50.872;5.306;2024-01-30T07:40:52;5.85;;;3.42;;
25237;SDS011;13185;50.872;5.306;2024-01-30T07:43:20;4.63;;;3.03;;
25237;SDS011;13185;50.872;5.306;2024-01-30T07:45:48;4.03;;;3.25;;
25237;SDS011;13185;50.872;5.306;2024-01-30T07:48:14;3.78;;;3.20;;
25237;SDS011;13185;50.872;5.306;2024-01-30T07:50:39;6.68;;;3.60;;
25237;SDS011;13185;50.872;5.306;2024-01-30T07:53:05;6.60;;;3.83;;
25237;SDS011;13185;50.872;5.306;2024-01-30T07:55:31;5.93;;;3.65;;
25237;SDS011;13185;50.872;5.306;2024-01-30T07:58:01;5.65;;;3.45;;
25237;SDS011;13185;50.872;5.306;2024-01-30T08:00:26;4.85;;;3.38;;
25237;SDS011;13185;50.872;5.306;2024-01-30T08:02:54;5.38;;;3.60;;
25237;SDS011;13185;50.872;5.306;2024-01-30T08:05:20;5.97;;;3.88;;
25237;SDS011;13185;50.872;5.306;2024-01-30T08:07:48;4.93;;;3.35;;
25237;SDS011;13185;50.872;5.306;2024-01-30T08:10:14;4.57;;;3.60;;
25237;SDS011;13185;50.872;5.306;2024-01-30T08:12:40;5.30;;;3.42;;
25237;SDS011;13185;50.872;5.306;2024-01-30T08:15:06;4.55;;;3.78;;
25237;SDS011;13185;50.872;5.306;2024-01-30T08:17:33;6.75;;;4.00;;
25237;SDS011;13185;50.872;5.306;2024-01-30T08:19:58;6.85;;;4.28;;
25237;SDS011;13185;50.872;5.306;2024-01-30T08:22:24;7.75;;;4.32;;
25237;SDS011;13185;50.872;5.306;2024-01-30T08:24:50;8.43;;;3.88;;
25237;SDS011;13185;50.872;5.306;2024-01-30T08:27:19;9.18;;;3.50;;
25237;SDS011;13185;50.872;5.306;2024-01-30T08:29:45;8.73;;;4.03;;
25237;SDS011;13185;50.872;5.306;2024-01-30T08:32:11;5.28;;;3.45;;
25237;SDS011;13185;50.872;5.306;2024-01-30T08:34:37;5.63;;;3.40;;
25237;SDS011;13185;50.872;5.306;2024-01-30T08:37:03;5.32;;;3.08;;
25237;SDS011;13185;50.872;5.306;2024-01-30T08:39:28;6.38;;;3.70;;
25237;SDS011;13185;50.872;5.306;2024-01-30T08:41:54;5.75;;;2.95;;
25237;SDS011;13185;50.872;5.306;2024-01-30T08:44:19;4.63;;;3.05;;
25237;SDS011;13185;50.872;5.306;2024-01-30T08:46:45;6.00;;;3.47;;
25237;SDS011;13185;50.872;5.306;2024-01-30T08:49:11;4.93;;;3.25;;
25237;SDS011;13185;50.872;5.306;2024-01-30T08:51:38;6.05;;;3.35;;
25237;SDS011;13185;50.872;5.306;2024-01-30T08:54:04;5.75;;;3.67;;
25237;SDS011;13185;50.872;5.306;2024-01-30T08:56:30;6.20;;;3.10;;
25237;SDS011;13185;50.872;5.306;2024-01-30T08:58:55;5.78;;;3.80;;
25237;SDS011;13185;50.872;5.306;2024-01-30T09:01:21;6.50;;;3.65;;
25237;SDS011;13185;50.872;5.306;2024-01-30T09:03:46;6.30;;;3.67;;
25237;SDS011;13185;50.872;5.306;2024-01-30T09:06:12;6.63;;;3.53;;
25237;SDS011;13185;50.872;5.306;2024-01-30T09:08:38;6.20;;;3.40;;
25237;SDS011;13185;50.872;5.306;2024-01-30T09:11:11;7.25;;;3.80;;
25237;SDS011;13185;50.872;5.306;2024-01-30T09:13:40;8.60;;;3.20;;
25237;SDS011;13185;50.872;5.306;2024-01-30T09:16:06;8.00;;;3.40;;
25237;SDS011;13185;50.872;5.306;2024-01-30T09:18:32;4.80;;;3.30;;
25237;SDS011;13185;50.872;5.306;2024-01-30T09:20:58;4.47;;;3.25;;
25237;SDS011;13185;50.872;5.306;2024-01-30T09:23:24;6.43;;;3.53;;
25237;SDS011;13185;50.872;5.306;2024-01-30T09:25:50;8.38;;;3.58;;
25237;SDS011;13185;50.872;5.306;2024-01-30T09:28:17;7.00;;;3.72;;
25237;SDS011;13185;50.872;5.306;2024-01-30T09:30:42;4.75;;;3.22;;
25237;SDS011;13185;50.872;5.306;2024-01-30T09:33:08;7.03;;;4.20;;
25237;SDS011;13185;50.872;5.306;2024-01-30T09:35:34;5.53;;;3.50;;
25237;SDS011;13185;50.872;5.306;2024-01-30T09:38:01;6.75;;;4.20;;
25237;SDS011;13185;50.872;5.306;2024-01-30T09:40:27;7.60;;;3.55;;
25237;SDS011;13185;50.872;5.306;2024-01-30T09:42:53;7.68;;;3.28;;
25237;SDS011;13185;50.872;5.306;2024-01-30T09:45:19;5.65;;;4.00;;
25237;SDS011;13185;50.872;5.306;2024-01-30T09:47:48;8.32;;;3.17;;
25237;SDS011;13185;50.872;5.306;2024-01-30T09:50:14;5.97;;;2.88;;
25237;SDS011;13185;50.872;5.306;2024-01-30T09:52:40;9.13;;;3.95;;
25237;SDS011;13185;50.872;5.306;2024-01-30T09:55:07;6.90;;;3.53;;
25237;SDS011;13185;50.872;5.306;2024-01-30T09:57:36;5.63;;;3.53;;
25237;SDS011;13185;50.872;5.306;2024-01-30T10:00:02;8.43;;;3.30;;
25237;SDS011;13185;50.872;5.306;2024-01-30T10:02:37;8.50;;;3.67;;
25237;SDS011;13185;50.872;5.306;2024-01-30T10:05:03;6.95;;;3.70;;
25237;SDS011;13185;50.872;5.306;2024-01-30T10:07:30;6.68;;;3.80;;
25237;SDS011;13185;50.872;5.306;2024-01-30T10:09:56;8.73;;;3.40;;
25237;SDS011;13185;50.872;5.306;2024-01-30T10:12:27;6.38;;;4.07;;
25237;SDS011;13185;50.872;5.306;2024-01-30T10:14:55;8.32;;;3.72;;
25237;SDS011;13185;50.872;5.306;2024-01-30T10:17:24;6.68;;;4.28;;
25237;SDS011;13185;50.872;5.306;2024-01-30T10:19:50;6.93;;;3.38;;
25237;SDS011;13185;50.872;5.306;2024-01-30T10:22:16;7.15;;;3.80;;
25237;SDS011;13185;50.872;5.306;2024-01-30T10:24:42;11.38;;;4.28;;
25237;SDS011;13185;50.872;5.306;2024-01-30T10:27:10;10.60;;;4.40;;
25237;SDS011;13185;50.872;5.306;2024-01-30T10:29:36;6.30;;;3.95;;
25237;SDS011;13185;50.872;5.306;2024-01-30T10:32:02;8.02;;;4.25;;
25237;SDS011;13185;50.872;5.306;2024-01-30T10:34:29;8.95;;;4.05;;
25237;SDS011;13185;50.872;5.306;2024-01-30T10:36:59;10.13;;;4.43;;
25237;SDS011;13185;50.872;5.306;2024-01-30T10:39:29;6.47;;;4.20;;
25237;SDS011;13185;50.872;5.306;2024-01-30T10:41:59;9.23;;;4.68;;
25237;SDS011;13185;50.872;5.306;2024-01-30T10:44:33;11.85;;;4.60;;
25237;SDS011;13185;50.872;5.306;2024-01-30T10:47:14;7.57;;;4.90;;
25237;SDS011;13185;50.872;5.306;2024-01-30T10:49:46;9.57;;;4.50;;
25237;SDS011;13185;50.872;5.306;2024-01-30T10:52:12;8.40;;;4.43;;
25237;SDS011;13185;50.872;5.306;2024-01-30T10:54:39;8.23;;;4.40;;
25237;SDS011;13185;50.872;5.306;2024-01-30T10:57:05;9.93;;;4.85;;
25237;SDS011;13185;50.872;5.306;2024-01-30T10:59:31;8.30;;;4.13;;
25237;SDS011;13185;50.872;5.306;2024-01-30T11:01:58;7.65;;;4.07;;
25237;SDS011;13185;50.872;5.306;2024-01-30T11:04:24;9.32;;;4.60;;
25237;SDS011;13185;50.872;5.306;2024-01-30T11:06:50;9.15;;;4.28;;
25237;SDS011;13185;50.872;5.306;2024-01-30T11:09:17;8.70;;;4.88;;
25237;SDS011;13185;50.872;5.306;2024-01-30T11:14:15;9.02;;;4.32;;
25237;SDS011;13185;50.872;5.306;2024-01-30T11:16:40;8.93;;;4.93;;
25237;SDS011;13185;50.872;5.306;2024-01-30T11:19:07;12.23;;;5.43;;
25237;SDS011;13185;50.872;5.306;2024-01-30T11:21:43;9.05;;;5.15;;
25237;SDS011;13185;50.872;5.306;2024-01-30T11:24:08;10.63;;;5.65;;
25237;SDS011;13185;50.872;5.306;2024-01-30T11:26:34;9.52;;;5.88;;
25237;SDS011;13185;50.872;5.306;2024-01-30T11:29:03;11.20;;;5.05;;
25237;SDS011;13185;50.872;5.306;2024-01-30T11:31:29;6.93;;;5.05;;
25237;SDS011;13185;50.872;5.306;2024-01-30T12:23:56;9.25;;;5.60;;
25237;SDS011;13185;50.872;5.306;2024-01-30T12:26:23;11.20;;;5.72;;
25237;SDS011;13185;50.872;5.306;2024-01-30T12:28:50;9.55;;;5.80;;
25237;SDS011;13185;50.872;5.306;2024-01-30T12:31:18;8.85;;;5.90;;
25237;SDS011;13185;50.872;5.306;2024-01-30T12:33:51;9.87;;;5.73;;
25237;SDS011;13185;50.872;5.306;2024-01-30T12:36:17;13.90;;;6.60;;
25237;SDS011;13185;50.872;5.306;2024-01-30T12:38:43;12.25;;;6.07;;
25237;SDS011;13185;50.872;5.306;2024-01-30T12:41:09;10.32;;;6.25;;
25237;SDS011;13185;50.872;5.306;2024-01-30T12:43:35;11.32;;;6.18;;
25237;SDS011;13185;50.872;5.306;2024-01-30T12:46:01;8.95;;;5.50;;
25237;SDS011;13185;50.872;5.306;2024-01-30T12:48:28;10.68;;;4.68;;
25237;SDS011;13185;50.872;5.306;2024-01-30T12:50:55;13.40;;;3.92;;
25237;SDS011;13185;50.872;5.306;2024-01-30T12:53:21;7.53;;;3.90;;
25237;SDS011;13185;50.872;5.306;2024-01-30T12:55:47;5.45;;;2.97;;
25237;SDS011;13185;50.872;5.306;2024-01-30T12:58:12;6.90;;;2.22;;
25237;SDS011;13185;50.872;5.306;2024-01-30T13:00:38;7.28;;;1.88;;
25237;SDS011;13185;50.872;5.306;2024-01-30T13:03:03;5.82;;;1.67;;
25237;SDS011;13185;50.872;5.306;2024-01-30T13:05:29;5.03;;;2.20;;
25237;SDS011;13185;50.872;5.306;2024-01-30T13:07:55;4.65;;;1.70;;
25237;SDS011;13185;50.872;5.306;2024-01-30T13:10:22;5.30;;;1.45;;
25237;SDS011;13185;50.872;5.306;2024-01-30T13:12:48;7.25;;;1.83;;
25237;SDS011;13185;50.872;5.306;2024-01-30T13:15:13;3.10;;;1.13;;
25237;SDS011;13185;50.872;5.306;2024-01-30T13:17:39;3.03;;;1.88;;
25237;SDS011;13185;50.872;5.306;2024-01-30T13:20:05;4.03;;;0.88;;
25237;SDS011;13185;50.872;5.306;2024-01-30T13:22:33;4.22;;;0.95;;
25237;SDS011;13185;50.872;5.306;2024-01-30T13:24:58;2.28;;;0.70;;
25237;SDS011;13185;50.872;5.306;2024-01-30T13:27:24;2.35;;;0.70;;
25237;SDS011;13185;50.872;5.306;2024-01-30T13:29:49;2.88;;;0.80;;
25237;SDS011;13185;50.872;5.306;2024-01-30T13:32:15;2.88;;;0.90;;
25237;SDS011;13185;50.872;5.306;2024-01-30T13:34:41;1.23;;;0.45;;
25237;SDS011;13185;50.872;5.306;2024-01-30T13:37:07;2.47;;;0.73;;
25237;SDS011;13185;50.872;5.306;2024-01-30T13:39:32;2.55;;;0.73;;
25237;SDS011;13185;50.872;5.306;2024-01-30T13:41:58;3.00;;;0.60;;
25237;SDS011;13185;50.872;5.306;2024-01-30T13:44:23;2.45;;;0.57;;
25237;SDS011;13185;50.872;5.306;2024-01-30T13:46:49;1.20;;;0.50;;
25237;SDS011;13185;50.872;5.306;2024-01-30T13:49:15;2.85;;;0.40;;
25237;SDS011;13185;50.872;5.306;2024-01-30T13:51:42;1.63;;;0.50;;
25237;SDS011;13185;50.872;5.306;2024-01-30T13:54:08;2.05;;;0.50;;
25237;SDS011;13185;50.872;5.306;2024-01-30T13:56:33;2.08;;;0.30;;
25237;SDS011;13185;50.872;5.306;2024-01-30T13:58:59;1.17;;;0.30;;
25237;SDS011;13185;50.872;5.306;2024-01-30T14:01:26;1.25;;;0.40;;
25237;SDS011;13185;50.872;5.306;2024-01-30T14:03:52;0.77;;;0.40;;
25237;SDS011;13185;50.872;5.306;2024-01-30T14:06:17;0.73;;;0.40;;
25237;SDS011;13185;50.872;5.306;2024-01-30T14:08:44;3.75;;;0.38;;
25237;SDS011;13185;50.872;5.306;2024-01-30T14:11:09;0.55;;;0.20;;
25237;SDS011;13185;50.872;5.306;2024-01-30T14:13:35;0.57;;;0.20;;
25237;SDS011;13185;50.872;5.306;2024-01-30T14:16:00;0.40;;;0.20;;
25237;SDS011;13185;50.872;5.306;2024-01-30T14:18:26;4.60;;;0.20;;
25237;SDS011;13185;50.872;5.306;2024-01-30T14:20:52;1.95;;;0.30;;
25237;SDS011;13185;50.872;5.306;2024-01-30T14:23:17;5.68;;;0.68;;
25237;SDS011;13185;50.872;5.306;2024-01-30T14:25:43;3.53;;;0.20;;
25237;SDS011;13185;50.872;5.306;2024-01-30T14:28:09;3.25;;;0.63;;
25237;SDS011;13185;50.872;5.306;2024-01-30T14:30:35;2.58;;;0.32;;
25237;SDS011;13185;50.872;5.306;2024-01-30T14:33:01;1.85;;;0.40;;
25237;SDS011;13185;50.872;5.306;2024-01-30T14:35:26;0.65;;;0.20;;
25237;SDS011;13185;50.872;5.306;2024-01-30T14:37:52;2.72;;;0.20;;
25237;SDS011;13185;50.872;5.306;2024-01-30T14:40:18;0.98;;;0.10;;
25237;SDS011;13185;50.872;5.306;2024-01-30T14:42:44;1.08;;;0.15;;
25237;SDS011;13185;50.872;5.306;2024-01-30T14:45:10;1.40;;;0.15;;
25237;SDS011;13185;50.872;5.306;2024-01-30T14:47:36;0.88;;;0.17;;
25237;SDS011;13185;50.872;5.306;2024-01-30T14:50:02;2.15;;;0.30;;
25237;SDS011;13185;50.872;5.306;2024-01-30T14:52:29;1.60;;;0.20;;
25237;SDS011;13185;50.872;5.306;2024-01-30T14:54:55;2.10;;;0.85;;
25237;SDS011;13185;50.872;5.306;2024-01-30T14:57:20;0.75;;;0.32;;
25237;SDS011;13185;50.872;5.306;2024-01-30T14:59:46;2.78;;;0.50;;
25237;SDS011;13185;50.872;5.306;2024-01-30T15:02:13;1.70;;;0.30;;
25237;SDS011;13185;50.872;5.306;2024-01-30T15:04:39;2.75;;;0.63;;
25237;SDS011;13185;50.872;5.306;2024-01-30T15:07:05;3.92;;;0.20;;
25237;SDS011;13185;50.872;5.306;2024-01-30T15:09:30;1.58;;;0.45;;
25237;SDS011;13185;50.872;5.306;2024-01-30T15:11:56;7.55;;;1.80;;
25237;SDS011;13185;50.872;5.306;2024-01-30T15:14:22;3.85;;;1.52;;
25237;SDS011;13185;50.872;5.306;2024-01-30T15:16:49;1.88;;;0.50;;
25237;SDS011;13185;50.872;5.306;2024-01-30T15:19:15;1.92;;;0.40;;
25237;SDS011;13185;50.872;5.306;2024-01-30T15:21:40;3.08;;;0.40;;
25237;SDS011;13185;50.872;5.306;2024-01-30T15:24:06;1.83;;;0.30;;
25237;SDS011;13185;50.872;5.306;2024-01-30T15:26:32;2.83;;;0.60;;
25237;SDS011;13185;50.872;5.306;2024-01-30T15:28:57;1.40;;;0.28;;
25237;SDS011;13185;50.872;5.306;2024-01-30T15:31:23;1.83;;;0.30;;
25237;SDS011;13185;50.872;5.306;2024-01-30T15:33:48;2.92;;;0.98;;